createdAt,value
2022-12-23T00:01:27.731Z,20.37
2022-12-23T00:03:59.779Z,16.13
2022-12-23T00:06:28.420Z,18.70
2022-12-23T00:08:58.745Z,17.20
2022-12-23T00:11:28.605Z,18.83
2022-12-23T00:14:21.270Z,14.13
2022-12-23T00:16:52.266Z,13.90
2022-12-23T00:19:20.774Z,12.73
2022-12-23T00:21:49.462Z,14.70
2022-12-23T00:24:17.797Z,13.73
2022-12-23T00:26:46.109Z,15.50
2022-12-23T00:29:14.572Z,14.83
2022-12-23T00:31:42.895Z,12.70
2022-12-23T00:34:13.164Z,14.93
2022-12-23T00:36:41.520Z,14.33
2022-12-23T00:39:31.609Z,18.13
2022-12-23T00:42:17.447Z,10.97
2022-12-23T00:44:45.978Z,12.97
2022-12-23T00:47:36.153Z,12.20
2022-12-23T00:50:05.387Z,17.00
2022-12-23T00:52:33.725Z,12.50
2022-12-23T00:55:01.952Z,17.57
2022-12-23T00:57:30.266Z,14.37
2022-12-23T00:59:58.583Z,16.43
2022-12-23T01:02:44.036Z,13.43
2022-12-23T01:08:16.909Z,12.93
2022-12-23T01:10:45.181Z,14.70
2022-12-23T01:13:13.534Z,14.43
2022-12-23T01:15:41.727Z,10.53
2022-12-23T01:18:09.992Z,10.90
2022-12-23T01:20:38.989Z,14.43
2022-12-23T01:23:07.553Z,15.03
2022-12-23T01:25:37.168Z,13.13
2022-12-23T01:28:05.847Z,12.97
2022-12-23T01:30:34.104Z,12.83
2022-12-23T01:33:02.438Z,15.03
2022-12-23T01:35:30.710Z,13.13
2022-12-23T01:37:58.931Z,10.07
2022-12-23T01:40:27.254Z,9.33
2022-12-23T01:42:55.884Z,11.77
2022-12-23T01:45:29.022Z,9.17
2022-12-23T01:48:00.056Z,11.77
2022-12-23T01:50:32.453Z,12.03
2022-12-23T01:53:08.155Z,10.70
2022-12-23T01:55:41.453Z,13.73
2022-12-23T01:58:15.391Z,15.33
2022-12-23T02:01:01.472Z,14.83
2022-12-23T02:03:45.469Z,9.10
2022-12-23T02:06:38.614Z,10.70
2022-12-23T02:09:19.243Z,13.27
2022-12-23T02:12:22.788Z,12.23
2022-12-23T02:15:28.374Z,12.23
2022-12-23T02:18:12.607Z,13.90
2022-12-23T02:21:11.228Z,9.60
2022-12-23T02:24:15.547Z,9.93
2022-12-23T02:27:14.662Z,10.13
2022-12-23T02:30:25.003Z,12.87
2022-12-23T02:33:14.282Z,12.20
2022-12-23T02:35:49.190Z,11.13
2022-12-23T02:38:22.896Z,10.80
2022-12-23T02:41:01.226Z,10.77
2022-12-23T02:43:36.722Z,11.70
2022-12-23T02:46:10.909Z,11.83
2022-12-23T02:48:45.369Z,15.77
2022-12-23T02:51:16.609Z,12.63
2022-12-23T02:53:51.775Z,8.83
2022-12-23T02:56:21.642Z,9.00
2022-12-23T02:58:54.402Z,15.27
2022-12-23T03:01:25.528Z,10.87
2022-12-23T03:03:55.510Z,12.23
2022-12-23T03:06:28.294Z,10.60
2022-12-23T03:08:58.561Z,15.63
2022-12-23T03:11:40.338Z,12.70
2022-12-23T03:14:35.419Z,15.10
2022-12-23T03:17:16.215Z,14.73
2022-12-23T03:19:53.146Z,14.03
2022-12-23T03:22:25.737Z,14.83
2022-12-23T03:25:02.055Z,19.27
2022-12-23T03:27:40.074Z,22.60
2022-12-23T03:30:11.992Z,15.47
2022-12-23T03:32:47.621Z,16.77
2022-12-23T03:35:20.987Z,11.67
2022-12-23T03:37:51.653Z,14.57
2022-12-23T03:40:23.524Z,14.93
2022-12-23T03:42:58.503Z,14.67
2022-12-23T03:45:40.362Z,14.57
2022-12-23T03:48:15.080Z,17.57
2022-12-23T03:50:47.418Z,13.37
2022-12-23T03:53:21.740Z,15.67
2022-12-23T03:55:54.913Z,17.37
2022-12-23T03:58:32.237Z,13.97
2022-12-23T04:01:10.352Z,15.07
2022-12-23T04:03:46.274Z,12.63
2022-12-23T04:06:18.655Z,18.03
2022-12-23T04:08:49.679Z,18.47
2022-12-23T04:11:18.272Z,15.43
2022-12-23T04:13:48.543Z,15.57
2022-12-23T04:16:17.178Z,12.43
2022-12-23T04:18:45.545Z,12.90
2022-12-23T04:21:15.232Z,15.13
2022-12-23T04:23:43.536Z,16.63
2022-12-23T04:26:11.783Z,14.13
2022-12-23T04:28:40.028Z,10.50
2022-12-23T04:31:08.292Z,14.00
2022-12-23T04:33:36.654Z,13.33
2022-12-23T04:36:05.163Z,13.87
2022-12-23T04:38:34.937Z,11.80
2022-12-23T04:41:03.184Z,10.33
2022-12-23T04:43:31.476Z,14.83
2022-12-23T04:45:59.765Z,12.13
2022-12-23T04:48:28.101Z,13.23
2022-12-23T04:50:56.411Z,12.43
2022-12-23T04:53:24.677Z,12.73
2022-12-23T04:55:57.463Z,10.77
2022-12-23T04:58:26.091Z,9.40
2022-12-23T05:01:03.137Z,12.33
2022-12-23T05:03:31.554Z,11.73
2022-12-23T05:05:59.913Z,14.03
2022-12-23T05:08:28.677Z,14.40
2022-12-23T05:10:58.471Z,10.77
2022-12-23T05:13:26.767Z,8.27
2022-12-23T05:15:55.854Z,10.40
2022-12-23T05:18:24.168Z,13.30
2022-12-23T05:20:52.636Z,14.03
2022-12-23T05:23:20.875Z,10.33
2022-12-23T05:25:53.012Z,12.23
2022-12-23T05:28:23.860Z,12.83
2022-12-23T05:30:59.214Z,10.47
2022-12-23T05:33:27.942Z,16.83
2022-12-23T05:35:56.427Z,12.67
2022-12-23T05:38:24.672Z,13.03
2022-12-23T05:40:53.167Z,12.13
2022-12-23T05:43:23.188Z,13.63
2022-12-23T05:45:52.053Z,8.03
2022-12-23T05:48:20.361Z,8.73
2022-12-23T05:50:50.678Z,15.53
2022-12-23T05:53:19.619Z,9.77
2022-12-23T05:55:48.410Z,13.17
2022-12-23T05:58:17.038Z,13.13
2022-12-23T06:00:46.879Z,11.53
2022-12-23T06:03:15.536Z,9.83
2022-12-23T06:05:44.093Z,11.40
2022-12-23T06:08:12.399Z,10.47
2022-12-23T06:10:40.772Z,13.93
2022-12-23T06:13:09.367Z,13.43
2022-12-23T06:15:37.658Z,9.13
2022-12-23T06:18:07.392Z,11.67
2022-12-23T06:20:38.624Z,14.63
2022-12-23T06:23:06.887Z,15.47
2022-12-23T06:25:35.225Z,10.53
2022-12-23T06:28:03.516Z,8.30
2022-12-23T06:30:31.782Z,11.03
2022-12-23T06:33:00.000Z,11.13
2022-12-23T06:35:29.703Z,14.87
2022-12-23T06:37:58.080Z,11.90
2022-12-23T06:40:28.396Z,13.23
2022-12-23T06:42:56.671Z,13.47
2022-12-23T06:45:24.972Z,20.33
2022-12-23T06:47:53.320Z,11.70
2022-12-23T06:50:21.726Z,16.10
2022-12-23T06:52:51.521Z,14.50
2022-12-23T06:55:19.776Z,12.90
2022-12-23T06:57:48.044Z,11.77
2022-12-23T07:00:17.817Z,12.83
2022-12-23T07:02:46.181Z,13.73
2022-12-23T07:05:14.644Z,13.03
2022-12-23T07:07:42.949Z,12.17
2022-12-23T07:10:12.728Z,10.97
2022-12-23T07:12:44.840Z,17.20
2022-12-23T07:15:17.302Z,12.30
2022-12-23T07:17:45.646Z,13.57
2022-12-23T07:20:14.743Z,13.33
2022-12-23T07:22:43.036Z,11.23
2022-12-23T07:25:12.981Z,12.83
2022-12-23T07:27:41.256Z,10.73
2022-12-23T07:30:10.581Z,11.37
2022-12-23T07:32:38.829Z,9.40
2022-12-23T07:35:07.971Z,10.23
2022-12-23T07:37:36.269Z,9.17
2022-12-23T07:40:08.586Z,8.80
2022-12-23T07:42:47.070Z,15.00
2022-12-23T07:45:15.747Z,13.57
2022-12-23T07:47:44.267Z,11.37
2022-12-23T07:50:13.382Z,13.93
2022-12-23T07:52:41.605Z,10.10
2022-12-23T07:55:10.505Z,13.33
2022-12-23T07:57:40.789Z,11.13
2022-12-23T08:00:12.585Z,9.37
2022-12-23T08:02:41.189Z,8.30
2022-12-23T08:05:10.336Z,10.33
2022-12-23T08:07:39.035Z,10.47
2022-12-23T08:10:09.282Z,10.90
2022-12-23T08:12:39.034Z,14.53
2022-12-23T08:15:09.343Z,12.67
2022-12-23T08:17:37.579Z,10.23
2022-12-23T08:20:07.507Z,11.87
2022-12-23T08:22:35.879Z,7.53
2022-12-23T08:25:04.839Z,15.53
2022-12-23T08:27:33.434Z,15.83
2022-12-23T08:30:03.379Z,13.10
2022-12-23T08:32:31.751Z,14.13
2022-12-23T08:34:59.984Z,10.47
2022-12-23T08:37:28.286Z,10.80
2022-12-23T08:39:56.556Z,9.07
2022-12-23T08:42:24.857Z,14.83
2022-12-23T08:44:53.150Z,13.83
2022-12-23T08:47:22.777Z,22.13
2022-12-23T08:49:51.017Z,14.10
2022-12-23T08:52:19.317Z,12.30
2022-12-23T08:54:47.677Z,15.17
2022-12-23T08:57:15.940Z,14.90
2022-12-23T08:59:44.183Z,16.00
2022-12-23T09:02:13.236Z,20.27
2022-12-23T09:04:43.087Z,20.07
2022-12-23T09:07:11.595Z,24.30
2022-12-23T09:09:40.046Z,19.83
2022-12-23T09:12:08.604Z,23.23
2022-12-23T09:14:37.150Z,26.60
2022-12-23T09:17:05.931Z,22.37
2022-12-23T09:19:34.278Z,19.77
2022-12-23T09:22:03.947Z,19.50
2022-12-23T09:24:32.744Z,19.83
2022-12-23T09:27:01.262Z,13.90
2022-12-23T09:29:29.533Z,17.77
2022-12-23T09:31:57.846Z,19.27
2022-12-23T09:34:26.700Z,16.13
2022-12-23T09:36:55.577Z,15.63
2022-12-23T09:39:25.695Z,13.63
2022-12-23T09:42:04.626Z,13.77
2022-12-23T09:44:55.123Z,16.50
2022-12-23T09:47:26.275Z,21.20
2022-12-23T09:49:58.993Z,18.47
2022-12-23T09:52:38.341Z,15.57
2022-12-23T09:55:12.123Z,16.53
2022-12-23T09:57:50.204Z,14.83
2022-12-23T10:00:20.420Z,18.20
2022-12-23T10:03:02.315Z,17.37
2022-12-23T10:05:40.724Z,17.07
2022-12-23T10:08:13.844Z,17.70
2022-12-23T10:10:46.462Z,13.60
2022-12-23T10:13:23.885Z,16.43
2022-12-23T10:15:54.798Z,13.53
2022-12-23T10:18:28.106Z,12.27
2022-12-23T10:21:01.006Z,10.23
2022-12-23T10:23:34.792Z,13.97
2022-12-23T10:26:08.657Z,16.53
2022-12-23T10:28:37.023Z,13.40
2022-12-23T10:31:42.491Z,14.73
2022-12-23T10:34:06.586Z,11.50
2022-12-23T10:36:45.522Z,15.83
2022-12-23T10:39:22.898Z,11.93
2022-12-23T10:42:03.027Z,13.20
2022-12-23T10:44:55.919Z,12.67
2022-12-23T10:47:34.531Z,15.10
2022-12-23T10:50:15.792Z,13.70
2022-12-23T10:52:46.603Z,9.93
2022-12-23T10:55:23.648Z,10.27
2022-12-23T10:58:08.039Z,13.47
2022-12-23T11:00:40.108Z,12.90
2022-12-23T11:03:17.715Z,15.17
2022-12-23T11:05:47.411Z,11.67
2022-12-23T11:08:16.887Z,12.73
2022-12-23T11:10:46.017Z,13.50
2022-12-23T11:13:25.494Z,11.37
2022-12-23T11:15:53.964Z,11.80
2022-12-23T11:18:22.729Z,14.27
2022-12-23T11:21:04.397Z,14.87
2022-12-23T11:23:35.924Z,14.03
2022-12-23T11:26:07.687Z,15.40
2022-12-23T11:28:40.194Z,15.40
2022-12-23T11:31:12.051Z,15.23
2022-12-23T11:33:42.760Z,10.53
2022-12-23T11:36:18.317Z,12.47
2022-12-23T11:38:51.707Z,15.83
2022-12-23T11:41:22.312Z,10.43
2022-12-23T11:43:58.254Z,12.90
2022-12-23T11:46:28.427Z,12.30
2022-12-23T11:49:15.477Z,10.87
2022-12-23T11:51:43.927Z,10.70
2022-12-23T11:54:18.159Z,9.77
2022-12-23T11:56:51.077Z,8.67
2022-12-23T11:59:36.662Z,10.93
2022-12-23T12:02:13.404Z,9.17
2022-12-23T12:04:43.067Z,8.47
2022-12-23T12:07:15.473Z,7.70
2022-12-23T12:09:45.871Z,7.03
2022-12-23T12:12:19.398Z,8.40
2022-12-23T12:14:52.528Z,7.97
2022-12-23T12:17:24.457Z,6.90
2022-12-23T12:20:04.776Z,7.87
2022-12-23T12:22:40.364Z,8.83
2022-12-23T12:25:18.064Z,8.97
2022-12-23T12:27:51.422Z,8.17
2022-12-23T12:30:22.098Z,8.70
2022-12-23T12:32:57.176Z,8.87
2022-12-23T12:35:37.755Z,8.20
2022-12-23T12:38:14.211Z,9.17
2022-12-23T12:40:46.610Z,9.50
2022-12-23T12:43:25.812Z,12.07
2022-12-23T12:46:07.640Z,8.93
2022-12-23T12:48:45.903Z,9.13
2022-12-23T12:51:23.622Z,9.30
2022-12-23T12:54:05.983Z,8.63
2022-12-23T12:56:41.636Z,6.70
2022-12-23T12:59:17.054Z,6.23
2022-12-23T13:02:01.635Z,6.47
2022-12-23T13:04:59.850Z,5.07
2022-12-23T13:07:37.421Z,5.70
2022-12-23T13:10:15.930Z,6.47
2022-12-23T13:12:54.866Z,4.07
2022-12-23T13:15:28.227Z,6.17
2022-12-23T13:18:13.100Z,3.20
2022-12-23T13:20:46.448Z,4.23
2022-12-23T13:23:42.392Z,4.23
2022-12-23T13:26:19.712Z,3.07
2022-12-23T13:28:56.597Z,3.97
2022-12-23T13:31:37.392Z,3.00
2022-12-23T13:34:22.363Z,5.47
2022-12-23T13:36:56.344Z,4.73
2022-12-23T13:39:37.368Z,3.83
2022-12-23T13:42:10.323Z,4.40
2022-12-23T13:44:39.170Z,4.73
2022-12-23T13:47:15.592Z,4.03
2022-12-23T13:49:59.443Z,5.47
2022-12-23T13:52:43.838Z,4.93
2022-12-23T13:55:22.691Z,6.83
2022-12-23T13:57:58.174Z,4.43
2022-12-23T14:00:29.874Z,3.70
2022-12-23T14:03:18.028Z,5.93
2022-12-23T14:05:50.638Z,6.83
2022-12-23T14:08:30.756Z,4.37
2022-12-23T14:11:02.161Z,5.90
2022-12-23T14:13:32.943Z,5.17
2022-12-23T14:16:18.306Z,4.70
2022-12-23T14:19:06.470Z,5.37
2022-12-23T14:21:49.429Z,4.87
2022-12-23T14:24:45.784Z,4.90
2022-12-23T14:27:36.586Z,6.03
2022-12-23T14:30:13.871Z,2.83
2022-12-23T14:32:49.231Z,5.10
2022-12-23T14:35:27.703Z,4.23
2022-12-23T14:38:26.030Z,5.77
2022-12-23T14:41:19.070Z,5.97
2022-12-23T14:43:56.818Z,6.20
2022-12-23T14:46:59.316Z,8.17
2022-12-23T14:49:48.783Z,11.00
2022-12-23T14:52:45.119Z,8.13
2022-12-23T14:55:44.218Z,10.27
2022-12-23T14:58:45.983Z,6.17
2022-12-23T15:01:17.854Z,9.37
2022-12-23T15:03:49.133Z,10.67
2022-12-23T15:06:24.697Z,10.33
2022-12-23T15:08:54.825Z,10.27
2022-12-23T15:11:29.389Z,14.53
2022-12-23T15:14:00.316Z,14.27
2022-12-23T15:16:34.431Z,10.60
2022-12-23T15:19:13.516Z,15.20
2022-12-23T15:21:43.215Z,23.67
2022-12-23T15:24:16.636Z,13.63
2022-12-23T15:27:03.605Z,19.87
2022-12-23T15:29:41.988Z,17.17
2022-12-23T15:32:11.827Z,22.77
2022-12-23T15:34:40.249Z,15.53
2022-12-23T15:37:12.270Z,25.50
2022-12-23T15:39:45.111Z,17.60
2022-12-23T15:42:24.809Z,24.67
2022-12-23T15:44:53.345Z,23.83
2022-12-23T15:47:29.001Z,18.60
2022-12-23T15:49:59.264Z,26.27
2022-12-23T15:52:28.704Z,22.70
2022-12-23T15:55:01.722Z,19.37
2022-12-23T15:57:31.878Z,29.07
2022-12-23T16:00:01.679Z,28.73
2022-12-23T16:05:27.398Z,18.53
2022-12-23T16:08:10.966Z,21.63
2022-12-23T16:10:39.739Z,16.30
2022-12-23T16:13:18.235Z,17.87
2022-12-23T16:15:47.207Z,25.67
2022-12-23T16:18:22.072Z,22.03
2022-12-23T16:20:53.533Z,20.33
2022-12-23T16:23:22.734Z,17.50
2022-12-23T16:25:53.926Z,25.10
2022-12-23T16:28:28.104Z,29.30
2022-12-23T16:30:58.657Z,15.83
2022-12-23T16:33:36.252Z,21.87
2022-12-23T16:36:24.274Z,26.77
2022-12-23T16:38:57.576Z,14.90
2022-12-23T16:41:25.880Z,17.60
2022-12-23T16:43:55.511Z,27.20
2022-12-23T16:46:24.384Z,22.10
2022-12-23T16:48:55.763Z,13.90
2022-12-23T16:51:25.631Z,21.57
2022-12-23T16:53:56.468Z,26.93
2022-12-23T16:56:28.652Z,28.00
2022-12-23T16:58:58.428Z,20.03
2022-12-23T17:01:30.103Z,18.77
2022-12-23T17:03:58.720Z,19.80
2022-12-23T17:06:27.383Z,22.93
2022-12-23T17:08:56.758Z,20.73
2022-12-23T17:11:30.167Z,23.37
2022-12-23T17:14:04.899Z,18.63
2022-12-23T17:16:36.484Z,22.60
2022-12-23T17:19:05.776Z,25.83
2022-12-23T17:21:36.750Z,17.70
2022-12-23T17:24:10.292Z,27.33
2022-12-23T17:26:38.615Z,22.67
2022-12-23T17:29:10.942Z,19.87
2022-12-23T17:31:39.809Z,22.93
2022-12-23T17:34:11.910Z,24.57
2022-12-23T17:36:46.043Z,25.90
2022-12-23T17:39:17.824Z,16.37
2022-12-23T17:41:46.325Z,17.30
2022-12-23T17:44:17.277Z,19.33
2022-12-23T17:46:47.179Z,30.20
2022-12-23T17:49:15.620Z,22.33
2022-12-23T17:51:44.298Z,19.47
2022-12-23T17:54:23.025Z,16.20
2022-12-23T17:56:52.124Z,18.73
2022-12-23T17:59:22.993Z,17.27
2022-12-23T18:01:51.687Z,18.83
2022-12-23T18:04:21.098Z,20.20
2022-12-23T18:06:49.411Z,19.47
2022-12-23T18:09:18.905Z,24.43
2022-12-23T18:11:48.586Z,17.87
2022-12-23T18:14:27.857Z,17.63
2022-12-23T18:16:57.835Z,15.57
2022-12-23T18:19:26.499Z,20.57
2022-12-23T18:21:54.965Z,22.77
2022-12-23T18:24:25.645Z,17.17
2022-12-23T18:26:53.910Z,19.70
2022-12-23T18:29:22.246Z,23.10
2022-12-23T18:31:52.350Z,16.33
2022-12-23T18:34:22.340Z,19.00
2022-12-23T18:36:52.117Z,20.63
2022-12-23T18:39:21.202Z,20.53
2022-12-23T18:41:49.529Z,15.63
2022-12-23T18:44:20.344Z,19.53
2022-12-23T18:46:49.175Z,14.27
2022-12-23T18:49:17.568Z,24.53
2022-12-23T18:51:47.436Z,19.20
2022-12-23T18:54:17.046Z,27.27
2022-12-23T18:56:45.600Z,22.63
2022-12-23T18:59:18.589Z,23.10
2022-12-23T19:01:48.778Z,16.40
2022-12-23T19:04:17.088Z,21.23
2022-12-23T19:06:47.100Z,22.83
2022-12-23T19:09:17.638Z,20.80
2022-12-23T19:11:48.690Z,26.63
2022-12-23T19:14:17.079Z,19.97
2022-12-23T19:16:51.225Z,24.07
2022-12-23T19:19:20.533Z,19.30
2022-12-23T19:21:50.134Z,19.97
2022-12-23T19:24:18.531Z,24.73
2022-12-23T19:26:46.848Z,25.47
2022-12-23T19:29:15.097Z,15.63
2022-12-23T19:31:43.396Z,24.00
2022-12-23T19:34:15.471Z,27.70
2022-12-23T19:36:44.461Z,19.43
2022-12-23T19:39:16.701Z,15.50
2022-12-23T19:41:45.670Z,16.23
2022-12-23T19:44:14.293Z,26.00
2022-12-23T19:46:42.798Z,18.30
2022-12-23T19:49:15.944Z,18.43
2022-12-23T19:51:48.548Z,21.70
2022-12-23T19:54:18.888Z,18.30
2022-12-23T19:56:47.211Z,16.70
2022-12-23T19:59:15.492Z,19.53
2022-12-23T20:01:44.236Z,22.83
2022-12-23T20:04:13.009Z,14.57
2022-12-23T20:06:42.529Z,21.33
2022-12-23T20:09:13.657Z,15.23
2022-12-23T20:11:44.795Z,21.80
2022-12-23T20:14:14.947Z,13.40
2022-12-23T20:16:43.697Z,18.73
2022-12-23T20:19:12.663Z,19.50
2022-12-23T20:21:41.016Z,17.50
2022-12-23T20:24:10.588Z,22.77
2022-12-23T20:26:39.229Z,18.30
2022-12-23T20:29:09.971Z,21.67
2022-12-23T20:31:39.694Z,20.80
2022-12-23T20:34:10.114Z,22.60
2022-12-23T20:36:38.685Z,18.93
2022-12-23T20:39:08.515Z,18.80
2022-12-23T20:41:36.894Z,21.83
2022-12-23T20:44:34.034Z,17.47
2022-12-23T20:46:56.388Z,19.13
2022-12-23T20:49:24.707Z,18.93
2022-12-23T20:51:52.943Z,18.50
2022-12-23T20:54:23.820Z,20.53
2022-12-23T20:56:56.367Z,22.50
2022-12-23T20:59:24.714Z,15.13
2022-12-23T21:01:53.150Z,19.50
2022-12-23T21:04:22.952Z,12.33
2022-12-23T21:06:51.523Z,16.80
2022-12-23T21:09:20.056Z,19.30
2022-12-23T21:11:49.240Z,19.80
2022-12-23T21:14:17.700Z,15.90
2022-12-23T21:16:46.626Z,21.43
2022-12-23T21:19:17.696Z,18.33
2022-12-23T21:21:47.988Z,18.50
2022-12-23T21:24:16.858Z,17.50
2022-12-23T21:26:49.045Z,20.10
2022-12-23T21:29:21.034Z,15.57
2022-12-23T21:31:49.443Z,20.13
2022-12-23T21:34:18.027Z,23.57
2022-12-23T21:36:47.748Z,18.37
2022-12-23T21:39:17.433Z,19.93
2022-12-23T21:41:46.018Z,25.90
2022-12-23T21:44:15.685Z,18.63
2022-12-23T21:46:44.145Z,20.60
2022-12-23T21:49:12.585Z,20.47
2022-12-23T21:51:41.798Z,30.07
2022-12-23T21:54:12.896Z,20.27
2022-12-23T21:56:42.729Z,23.83
2022-12-23T21:59:14.357Z,17.77
2022-12-23T22:01:43.378Z,17.10
2022-12-23T22:04:12.157Z,22.27
2022-12-23T22:06:43.867Z,23.33
2022-12-23T22:09:16.109Z,22.03
2022-12-23T22:11:44.931Z,21.47
2022-12-23T22:14:15.609Z,21.70
2022-12-23T22:16:44.037Z,20.40
2022-12-23T22:19:13.364Z,17.57
2022-12-23T22:21:42.693Z,23.23
2022-12-23T22:24:11.403Z,19.90
2022-12-23T22:26:41.661Z,22.53
2022-12-23T22:29:11.492Z,23.30
2022-12-23T22:31:42.422Z,27.30
2022-12-23T22:34:14.592Z,25.70
2022-12-23T22:36:43.339Z,19.93
2022-12-23T22:39:19.470Z,19.80
2022-12-23T22:41:50.197Z,22.33
2022-12-23T22:44:19.218Z,25.00
2022-12-23T22:46:47.786Z,24.00
2022-12-23T22:49:16.819Z,20.53
2022-12-23T22:51:45.428Z,23.10
2022-12-23T22:54:14.223Z,21.40
2022-12-23T22:56:42.497Z,22.13
2022-12-23T22:59:20.536Z,22.97
2022-12-23T23:01:50.053Z,24.77
2022-12-23T23:04:18.625Z,16.53
2022-12-23T23:06:46.940Z,20.93
2022-12-23T23:09:17.808Z,21.97
2022-12-23T23:11:46.917Z,20.73
2022-12-23T23:14:18.645Z,27.07
2022-12-23T23:16:47.167Z,24.20
2022-12-23T23:19:16.498Z,24.80
2022-12-23T23:21:44.797Z,26.67
2022-12-23T23:24:13.064Z,24.07
2022-12-23T23:26:41.429Z,21.10
2022-12-23T23:29:09.722Z,16.67
2022-12-23T23:31:42.380Z,23.97
2022-12-23T23:34:11.391Z,22.97
2022-12-23T23:36:39.861Z,25.37
2022-12-23T23:39:08.613Z,27.80
2022-12-23T23:41:36.935Z,30.23
2022-12-23T23:44:06.037Z,24.67
2022-12-23T23:46:34.821Z,22.33
2022-12-23T23:49:04.509Z,27.40
2022-12-23T23:51:32.767Z,20.40
2022-12-23T23:54:01.039Z,29.80
2022-12-23T23:56:35.754Z,19.83
2022-12-23T23:59:06.704Z,28.40
